createdAt,value
2019-05-30T00:07:56.055Z,61.15
2019-05-30T00:17:54.977Z,61.59
2019-05-30T00:27:55.271Z,61.88
2019-05-30T00:37:55.643Z,62.54
2019-05-30T00:47:55.956Z,63.12
2019-05-30T00:57:55.082Z,63.48
2019-05-30T01:07:55.027Z,63.59
2019-05-30T01:17:55.102Z,63.34
2019-05-30T01:27:55.043Z,63.25
2019-05-30T01:37:55.024Z,64.05
2019-05-30T01:47:54.998Z,64.64
2019-05-30T01:57:55.811Z,64.29
2019-05-30T02:07:56.779Z,64.78
2019-05-30T02:17:54.988Z,65.11
2019-05-30T02:27:55.078Z,65.87
2019-05-30T02:37:55.068Z,64.82
2019-05-30T02:47:54.990Z,65.74
2019-05-30T02:57:54.992Z,66.02
2019-05-30T03:07:55.039Z,66.66
2019-05-30T03:17:55.015Z,65.53
2019-05-30T03:27:55.056Z,65.86
2019-05-30T03:37:55.027Z,65.74
2019-05-30T03:47:55.015Z,65.89
2019-05-30T03:57:55.085Z,67.20
2019-05-30T04:07:55.063Z,66.38
2019-05-30T04:17:55.009Z,67.53
2019-05-30T04:27:55.192Z,67.76
2019-05-30T04:37:55.058Z,67.98
2019-05-30T04:47:55.057Z,67.76
2019-05-30T04:57:55.024Z,68.20
2019-05-30T05:07:55.090Z,69.30
2019-05-30T05:17:55.026Z,69.33
2019-05-30T05:27:55.119Z,69.78
2019-05-30T05:37:54.982Z,71.94
2019-05-30T05:47:55.075Z,71.50
2019-05-30T05:57:55.124Z,72.66
2019-05-30T06:07:54.928Z,72.66
2019-05-30T06:17:55.040Z,73.09
2019-05-30T06:27:54.997Z,74.18
2019-05-30T06:37:54.983Z,75.81
2019-05-30T06:47:55.161Z,75.56
2019-05-30T06:57:55.111Z,75.83
2019-05-30T07:07:55.065Z,78.04
2019-05-30T07:17:55.098Z,78.26
2019-05-30T07:27:55.232Z,77.85
2019-05-30T07:37:54.989Z,79.42
2019-05-30T07:47:55.172Z,79.06
2019-05-30T07:57:55.127Z,79.92
2019-05-30T08:07:55.005Z,81.02
2019-05-30T08:17:55.041Z,80.33
2019-05-30T08:27:55.023Z,79.24
2019-05-30T08:37:55.198Z,77.29
2019-05-30T08:47:55.069Z,76.72
2019-05-30T08:57:55.025Z,78.16
2019-05-30T09:07:55.004Z,76.92
2019-05-30T09:17:55.072Z,76.63
2019-05-30T09:27:55.035Z,76.85
2019-05-30T09:37:55.005Z,77.55
2019-05-30T09:47:55.112Z,78.47
2019-05-30T09:57:55.853Z,77.95
2019-05-30T10:07:55.932Z,78.49
2019-05-30T10:17:55.276Z,77.13
2019-05-30T10:27:55.061Z,74.59
2019-05-30T10:37:55.044Z,74.72
2019-05-30T10:47:55.031Z,73.85
2019-05-30T10:57:58.150Z,74.26
2019-05-30T11:08:02.001Z,73.71
2019-05-30T11:17:56.223Z,74.49
2019-05-30T11:27:55.078Z,75.87
2019-05-30T11:37:55.261Z,74.38
2019-05-30T11:47:55.758Z,74.65
2019-05-30T11:57:56.245Z,73.97
2019-05-30T12:07:55.044Z,73.62
2019-05-30T12:17:55.338Z,74.06
2019-05-30T12:27:56.014Z,72.98
2019-05-30T12:37:59.125Z,72.33
2019-05-30T12:47:55.154Z,71.00
2019-05-30T12:57:56.527Z,71.50
2019-05-30T13:08:12.987Z,71.82
2019-05-30T13:17:56.047Z,70.20
2019-05-30T13:27:55.766Z,70.68
2019-05-30T13:37:55.058Z,69.92
2019-05-30T13:47:55.024Z,68.77
2019-05-30T13:57:55.100Z,69.64
2019-05-30T14:07:55.063Z,69.04
2019-05-30T14:17:55.030Z,67.99
2019-05-30T14:27:55.116Z,65.16
2019-05-30T14:37:55.074Z,68.74
2019-05-30T14:47:55.113Z,68.76
2019-05-30T14:57:58.051Z,71.03
2019-05-30T15:07:55.039Z,69.76
2019-05-30T15:17:55.196Z,71.24
2019-05-30T15:27:55.070Z,71.33
2019-05-30T15:37:55.147Z,69.22
2019-05-30T15:47:55.192Z,68.19
2019-05-30T15:57:55.078Z,65.89
2019-05-30T16:07:55.123Z,67.31
2019-05-30T16:17:55.114Z,65.51
2019-05-30T16:27:55.071Z,67.59
2019-05-30T16:37:55.134Z,67.93
2019-05-30T16:47:55.095Z,70.71
2019-05-30T16:57:55.091Z,69.37
2019-05-30T17:07:55.112Z,69.51
2019-05-30T17:17:55.110Z,68.33
2019-05-30T17:27:55.187Z,68.58
2019-05-30T17:37:55.140Z,69.11
2019-05-30T17:48:07.633Z,69.36
2019-05-30T17:57:55.062Z,68.85
2019-05-30T18:07:55.144Z,69.04
2019-05-30T18:17:55.506Z,69.75
2019-05-30T18:27:55.178Z,70.69
2019-05-30T18:37:55.650Z,71.34
2019-05-30T18:47:55.117Z,72.41
2019-05-30T18:57:55.073Z,72.60
2019-05-30T19:07:55.164Z,74.18
2019-05-30T19:17:56.111Z,74.18
2019-05-30T19:27:55.071Z,74.85
2019-05-30T19:37:55.246Z,76.36
2019-05-30T19:47:55.118Z,77.14
2019-05-30T19:57:55.055Z,78.11
2019-05-30T20:07:55.155Z,79.54
2019-05-30T20:17:55.147Z,80.61
2019-05-30T20:27:55.060Z,81.11
2019-05-30T20:37:55.146Z,81.77
2019-05-30T20:47:55.124Z,81.79
2019-05-30T20:57:55.208Z,79.11
2019-05-30T21:07:56.800Z,79.06
2019-05-30T21:17:55.034Z,79.47
2019-05-30T21:27:55.185Z,78.25
2019-05-30T21:37:55.155Z,78.86
2019-05-30T21:47:55.247Z,79.52
2019-05-30T21:57:55.183Z,79.50
2019-05-30T22:07:55.158Z,81.48
2019-05-30T22:17:55.108Z,81.68
2019-05-30T22:27:55.171Z,82.15
2019-05-30T22:37:55.165Z,82.04
2019-05-30T22:47:55.129Z,84.15
2019-05-30T22:57:55.219Z,85.19
2019-05-30T23:07:55.650Z,83.71
2019-05-30T23:17:55.135Z,83.69
2019-05-30T23:27:55.631Z,83.87
2019-05-30T23:37:55.137Z,84.20
2019-05-30T23:47:55.531Z,83.63
2019-05-30T23:57:55.097Z,83.87
